Time;durP1;ratioP1;P1;durP2;ratioP2;P2;SDS_P1;SDS_P2;PMS_P1;PMS_P2;Temp;Humidity;BMP_temperature;BMP_pressure;BME280_temperature;BME280_humidity;BME280_pressure;Samples;Min_cycle;Max_cycle;Signal;HPM_P1;HPM_P2
2024/01/17 00:01:58;;;;;;;15.35;8.65;;;;;;;;;;5031264;28;20026;-78
2024/01/17 00:04:24;;;;;;;14.27;8.63;;;;;;;;;;5032567;28;20054;-78
2024/01/17 00:06:49;;;;;;;15.27;9.65;;;;;;;;;;5032479;28;20036;-78
2024/01/17 00:09:15;;;;;;;14.48;8.20;;;;;;;;;;5032519;28;20037;-78
2024/01/17 00:11:42;;;;;;;15.55;8.35;;;;;;;;;;5040103;28;20640;-78
2024/01/17 00:14:08;;;;;;;13.50;8.70;;;;;;;;;;5033240;28;20029;-78
2024/01/17 00:16:33;;;;;;;13.90;8.30;;;;;;;;;;5030028;28;20040;-78
2024/01/17 00:18:58;;;;;;;12.60;8.75;;;;;;;;;;5032905;28;20044;-78
2024/01/17 00:21:24;;;;;;;14.18;8.63;;;;;;;;;;5029736;28;20036;-78
2024/01/17 00:23:49;;;;;;;14.63;7.65;;;;;;;;;;5032077;28;20394;-78
2024/01/17 00:26:14;;;;;;;13.93;8.23;;;;;;;;;;5037018;28;20038;-78
2024/01/17 00:28:40;;;;;;;15.02;7.80;;;;;;;;;;5029998;28;20265;-78
2024/01/17 00:31:07;;;;;;;13.55;8.35;;;;;;;;;;5031081;28;20026;-78
2024/01/17 00:33:32;;;;;;;16.63;8.80;;;;;;;;;;5027787;28;20037;-78
2024/01/17 00:35:59;;;;;;;12.68;7.88;;;;;;;;;;5031471;28;20029;-78
2024/01/17 00:38:24;;;;;;;13.70;8.40;;;;;;;;;;5033405;28;20025;-78
2024/01/17 00:40:51;;;;;;;15.65;8.10;;;;;;;;;;5017297;28;20029;-78
2024/01/17 00:43:16;;;;;;;12.85;7.97;;;;;;;;;;5033418;28;20100;-78
2024/01/17 00:45:41;;;;;;;15.65;8.30;;;;;;;;;;5028834;28;20112;-78
2024/01/17 00:48:07;;;;;;;11.15;7.28;;;;;;;;;;5026955;28;20037;-78
2024/01/17 00:50:32;;;;;;;14.35;8.48;;;;;;;;;;5012652;28;20026;-78
2024/01/17 00:52:57;;;;;;;13.18;8.18;;;;;;;;;;5014144;28;20488;-78
2024/01/17 00:55:23;;;;;;;12.05;7.65;;;;;;;;;;5014621;28;20087;-77
2024/01/17 00:57:48;;;;;;;12.32;8.02;;;;;;;;;;5030313;28;20029;-83
2024/01/17 01:00:15;;;;;;;13.93;8.48;;;;;;;;;;5032946;28;20398;-82
2024/01/17 01:02:42;;;;;;;11.27;7.85;;;;;;;;;;5028081;28;20018;-83
2024/01/17 01:05:09;;;;;;;13.00;8.43;;;;;;;;;;5035381;28;20556;-83
2024/01/17 01:07:34;;;;;;;13.35;7.68;;;;;;;;;;5022392;28;20483;-83
2024/01/17 01:10:00;;;;;;;14.70;8.45;;;;;;;;;;5025016;28;20040;-83
2024/01/17 01:12:25;;;;;;;13.98;8.00;;;;;;;;;;5024199;28;20056;-83
2024/01/17 01:14:50;;;;;;;15.00;8.20;;;;;;;;;;5027261;28;20025;-82
2024/01/17 01:17:16;;;;;;;13.70;8.27;;;;;;;;;;5023393;28;20368;-83
2024/01/17 01:19:41;;;;;;;12.88;7.90;;;;;;;;;;5024892;28;20068;-82
2024/01/17 01:22:06;;;;;;;12.60;8.27;;;;;;;;;;5008687;28;20576;-83
2024/01/17 01:24:32;;;;;;;14.57;8.18;;;;;;;;;;5023595;28;20383;-83
2024/01/17 01:26:57;;;;;;;14.48;8.43;;;;;;;;;;5025066;28;20034;-83
2024/01/17 01:29:24;;;;;;;13.75;7.72;;;;;;;;;;5024402;28;20029;-82
2024/01/17 01:31:49;;;;;;;14.35;8.20;;;;;;;;;;5006100;28;20026;-83
2024/01/17 01:34:14;;;;;;;13.32;7.78;;;;;;;;;;5024780;28;20029;-83
2024/01/17 01:36:40;;;;;;;14.00;7.25;;;;;;;;;;5021755;28;20068;-83
2024/01/17 01:39:05;;;;;;;12.43;7.65;;;;;;;;;;5023121;28;20391;-83
2024/01/17 01:41:31;;;;;;;12.10;7.90;;;;;;;;;;5022075;28;20037;-83
2024/01/17 01:43:56;;;;;;;12.68;8.07;;;;;;;;;;5023860;28;20033;-84
2024/01/17 01:46:29;;;;;;;12.73;7.07;;;;;;;;;;5020457;28;20120;-84
2024/01/17 01:48:56;;;;;;;15.98;8.18;;;;;;;;;;5019219;28;20037;-83
2024/01/17 01:51:22;;;;;;;16.73;8.38;;;;;;;;;;5023766;28;20447;-83
2024/01/17 01:53:49;;;;;;;12.00;6.97;;;;;;;;;;5005927;28;20064;-83
2024/01/17 01:56:18;;;;;;;11.40;7.03;;;;;;;;;;5032030;28;20509;-83
2024/01/17 01:58:46;;;;;;;12.02;7.75;;;;;;;;;;5005846;28;20103;-83
2024/01/17 02:01:14;;;;;;;12.20;7.47;;;;;;;;;;5024575;28;20033;-78
2024/01/17 02:03:43;;;;;;;14.60;7.63;;;;;;;;;;5028747;23;21570;-78
2024/01/17 02:06:10;;;;;;;11.18;7.30;;;;;;;;;;5042483;28;20071;-79
2024/01/17 02:08:36;;;;;;;13.57;7.28;;;;;;;;;;5061444;28;20036;-78
2024/01/17 02:11:01;;;;;;;11.82;6.63;;;;;;;;;;5057685;28;20041;-78
2024/01/17 02:13:27;;;;;;;10.65;6.93;;;;;;;;;;5063317;28;20040;-78
2024/01/17 02:15:52;;;;;;;12.23;7.57;;;;;;;;;;5058488;28;20059;-78
2024/01/17 02:18:18;;;;;;;15.10;8.07;;;;;;;;;;5039696;28;20041;-78
2024/01/17 02:20:44;;;;;;;14.45;7.22;;;;;;;;;;5041253;28;21139;-78
2024/01/17 02:23:27;;;;;;;11.38;6.80;;;;;;;;;;5060018;28;20032;-78
2024/01/17 02:25:54;;;;;;;11.88;7.18;;;;;;;;;;5043016;28;20024;-78
2024/01/17 02:28:21;;;;;;;12.35;7.05;;;;;;;;;;5063098;28;20044;-78
2024/01/17 02:30:47;;;;;;;12.23;8.00;;;;;;;;;;5042378;28;20025;-78
2024/01/17 02:33:13;;;;;;;13.00;7.40;;;;;;;;;;5061667;28;20040;-78
2024/01/17 02:35:39;;;;;;;12.88;7.30;;;;;;;;;;5043538;28;20052;-78
2024/01/17 02:38:04;;;;;;;11.35;6.78;;;;;;;;;;5045399;28;20470;-78
2024/01/17 02:40:30;;;;;;;12.27;7.18;;;;;;;;;;5041796;28;20067;-78
2024/01/17 02:42:55;;;;;;;15.00;7.53;;;;;;;;;;5067069;28;20604;-78
2024/01/17 02:45:21;;;;;;;14.80;7.60;;;;;;;;;;5057738;28;20029;-78
2024/01/17 02:47:46;;;;;;;12.55;7.53;;;;;;;;;;5059156;28;20418;-78
2024/01/17 02:50:14;;;;;;;12.98;7.22;;;;;;;;;;5061985;28;20119;-78
2024/01/17 02:52:40;;;;;;;11.95;7.20;;;;;;;;;;5043464;28;20036;-78
2024/01/17 02:55:08;;;;;;;10.02;6.93;;;;;;;;;;5041690;28;20036;-78
2024/01/17 02:57:33;;;;;;;12.88;7.65;;;;;;;;;;5060863;28;20107;-78
2024/01/17 02:59:58;;;;;;;11.35;6.95;;;;;;;;;;5049036;28;22053;-78
2024/01/17 03:02:24;;;;;;;13.60;7.38;;;;;;;;;;5058819;28;21131;-78
2024/01/17 03:04:50;;;;;;;14.00;7.78;;;;;;;;;;5056840;28;20410;-78
2024/01/17 03:07:15;;;;;;;12.98;7.07;;;;;;;;;;5057634;28;20355;-78
2024/01/17 03:09:41;;;;;;;13.07;7.30;;;;;;;;;;5043161;28;20032;-78
2024/01/17 03:12:06;;;;;;;12.90;7.80;;;;;;;;;;5045894;28;20036;-77
2024/01/17 03:14:32;;;;;;;11.93;7.03;;;;;;;;;;5064809;28;20029;-78
2024/01/17 03:17:00;;;;;;;14.77;7.05;;;;;;;;;;5044541;28;20060;-78
2024/01/17 03:19:26;;;;;;;13.50;7.13;;;;;;;;;;5040076;28;20033;-78
2024/01/17 03:21:51;;;;;;;12.20;7.07;;;;;;;;;;5042875;28;20043;-78
2024/01/17 03:24:17;;;;;;;12.05;7.80;;;;;;;;;;5044830;28;20086;-78
2024/01/17 03:26:42;;;;;;;15.02;7.82;;;;;;;;;;5044722;28;20033;-78
2024/01/17 03:29:08;;;;;;;12.05;7.53;;;;;;;;;;5044976;28;20123;-78
2024/01/17 03:31:33;;;;;;;14.88;7.28;;;;;;;;;;5045079;28;20031;-78
2024/01/17 03:33:59;;;;;;;13.20;7.55;;;;;;;;;;5061813;28;20049;-78
2024/01/17 03:36:24;;;;;;;15.88;7.75;;;;;;;;;;5060688;28;20024;-78
2024/01/17 03:38:49;;;;;;;12.68;7.10;;;;;;;;;;5060734;28;20029;-78
2024/01/17 03:41:15;;;;;;;11.18;6.88;;;;;;;;;;5042930;28;20090;-78
2024/01/17 03:43:40;;;;;;;13.77;7.05;;;;;;;;;;5062522;28;20028;-78
2024/01/17 03:46:06;;;;;;;14.55;7.35;;;;;;;;;;5045107;28;20436;-77
2024/01/17 03:48:32;;;;;;;12.98;7.63;;;;;;;;;;5044410;28;20055;-78
2024/01/17 03:50:57;;;;;;;14.75;7.55;;;;;;;;;;5062273;28;20054;-78
2024/01/17 03:53:22;;;;;;;13.20;7.57;;;;;;;;;;5061205;28;20067;-78
2024/01/17 03:55:48;;;;;;;13.68;7.85;;;;;;;;;;5060880;28;20043;-78
2024/01/17 03:58:13;;;;;;;13.07;7.75;;;;;;;;;;5045107;28;20095;-78
2024/01/17 04:00:39;;;;;;;15.30;8.10;;;;;;;;;;5061118;28;20032;-78
2024/01/17 04:03:04;;;;;;;11.57;6.78;;;;;;;;;;5044969;28;20030;-78
2024/01/17 04:05:29;;;;;;;15.40;6.95;;;;;;;;;;5062197;28;20478;-78
2024/01/17 04:07:55;;;;;;;11.77;7.32;;;;;;;;;;5060614;28;20032;-78
2024/01/17 04:10:20;;;;;;;14.00;6.85;;;;;;;;;;5061622;28;20181;-78
2024/01/17 04:12:46;;;;;;;12.65;7.35;;;;;;;;;;5059840;28;20025;-77
2024/01/17 04:15:11;;;;;;;13.13;7.25;;;;;;;;;;5047362;28;20020;-78
2024/01/17 04:17:37;;;;;;;10.88;6.47;;;;;;;;;;5060104;28;20032;-78
2024/01/17 04:20:03;;;;;;;12.93;6.78;;;;;;;;;;5043550;28;20017;-78
2024/01/17 04:22:29;;;;;;;11.05;7.45;;;;;;;;;;5042142;28;20029;-78
2024/01/17 04:24:54;;;;;;;12.13;7.05;;;;;;;;;;5043596;28;20048;-78
2024/01/17 04:27:20;;;;;;;13.60;7.63;;;;;;;;;;5029996;28;21456;-78
2024/01/17 04:29:45;;;;;;;11.43;6.65;;;;;;;;;;5060737;28;20032;-78
2024/01/17 04:32:11;;;;;;;13.30;6.45;;;;;;;;;;5060726;28;20024;-78
2024/01/17 04:34:40;;;;;;;12.18;6.97;;;;;;;;;;5044532;28;20188;-78
2024/01/17 04:37:05;;;;;;;12.13;7.15;;;;;;;;;;5043210;28;20028;-78
2024/01/17 04:39:30;;;;;;;11.15;6.75;;;;;;;;;;5051213;28;20033;-78
2024/01/17 04:41:58;;;;;;;10.50;6.63;;;;;;;;;;5067178;28;20037;-78
2024/01/17 04:44:24;;;;;;;10.27;6.40;;;;;;;;;;5052595;28;20106;-78
2024/01/17 04:46:49;;;;;;;11.70;6.70;;;;;;;;;;5053510;28;20451;-78
2024/01/17 04:49:15;;;;;;;13.32;6.80;;;;;;;;;;5051218;28;20485;-78
2024/01/17 04:51:41;;;;;;;12.73;7.15;;;;;;;;;;5048743;28;20394;-78
2024/01/17 04:54:07;;;;;;;14.50;6.80;;;;;;;;;;5049121;28;20121;-78
2024/01/17 04:56:32;;;;;;;14.32;7.03;;;;;;;;;;5049333;28;20116;-78
2024/01/17 04:58:58;;;;;;;11.93;7.03;;;;;;;;;;5068121;28;20489;-78
2024/01/17 05:01:23;;;;;;;14.00;6.65;;;;;;;;;;5065964;28;20040;-78
2024/01/17 05:03:50;;;;;;;13.48;7.18;;;;;;;;;;5051338;28;20027;-78
2024/01/17 05:06:16;;;;;;;10.93;6.40;;;;;;;;;;5050072;28;20032;-78
2024/01/17 05:08:41;;;;;;;16.30;7.15;;;;;;;;;;5047470;28;20409;-78
2024/01/17 05:11:07;;;;;;;14.38;6.80;;;;;;;;;;5066638;28;20710;-78
2024/01/17 05:13:32;;;;;;;11.90;6.60;;;;;;;;;;5069734;28;20119;-79
2024/01/17 05:15:58;;;;;;;10.85;6.40;;;;;;;;;;5049236;28;20505;-78
2024/01/17 05:18:23;;;;;;;11.18;6.97;;;;;;;;;;5050610;28;20078;-78
2024/01/17 05:20:49;;;;;;;11.82;6.38;;;;;;;;;;5047649;28;20698;-78
2024/01/17 05:23:14;;;;;;;11.70;6.35;;;;;;;;;;5065711;28;20012;-78
2024/01/17 05:25:40;;;;;;;12.02;7.00;;;;;;;;;;5063404;28;20494;-78
2024/01/17 05:28:06;;;;;;;14.52;6.90;;;;;;;;;;5046587;28;20037;-78
2024/01/17 05:30:32;;;;;;;11.52;6.57;;;;;;;;;;5064780;28;20020;-78
2024/01/17 05:32:58;;;;;;;14.07;6.47;;;;;;;;;;5045782;28;20569;-78
2024/01/17 05:35:23;;;;;;;15.05;6.93;;;;;;;;;;5049415;28;20028;-78
2024/01/17 05:37:49;;;;;;;11.68;6.80;;;;;;;;;;5049626;28;20062;-78
2024/01/17 05:40:15;;;;;;;14.88;6.03;;;;;;;;;;5061264;28;20025;-78
2024/01/17 05:42:42;;;;;;;13.88;7.15;;;;;;;;;;5062491;28;20501;-78
2024/01/17 05:45:08;;;;;;;10.57;6.07;;;;;;;;;;5046632;28;20492;-78
2024/01/17 05:47:37;;;;;;;10.07;6.07;;;;;;;;;;5064209;28;20028;-78
2024/01/17 05:50:09;;;;;;;12.80;7.10;;;;;;;;;;5046916;28;20425;-78
2024/01/17 05:52:37;;;;;;;10.93;6.57;;;;;;;;;;5065990;28;20124;-78
2024/01/17 05:55:03;;;;;;;9.15;6.03;;;;;;;;;;5067197;28;20047;-78
2024/01/17 05:57:29;;;;;;;11.45;6.75;;;;;;;;;;5060358;28;20390;-78
2024/01/17 05:59:55;;;;;;;11.35;6.43;;;;;;;;;;5039654;28;20035;-79
2024/01/17 06:02:20;;;;;;;12.82;6.95;;;;;;;;;;5056358;28;20406;-78
2024/01/17 06:04:46;;;;;;;12.77;6.68;;;;;;;;;;5042132;28;20032;-78
2024/01/17 06:07:12;;;;;;;14.20;6.97;;;;;;;;;;5040387;28;20020;-79
2024/01/17 06:09:37;;;;;;;10.32;6.18;;;;;;;;;;5058753;28;20074;-78
2024/01/17 06:12:03;;;;;;;12.82;6.15;;;;;;;;;;5041066;28;20063;-78
2024/01/17 06:14:29;;;;;;;11.65;6.35;;;;;;;;;;5043332;28;20516;-78
2024/01/17 06:16:54;;;;;;;15.05;6.80;;;;;;;;;;5058178;28;20108;-78
2024/01/17 06:19:20;;;;;;;14.65;6.93;;;;;;;;;;5042961;28;20024;-78
2024/01/17 06:21:45;;;;;;;14.27;7.60;;;;;;;;;;5043631;28;20024;-78
2024/01/17 06:24:11;;;;;;;12.45;6.82;;;;;;;;;;5041711;28;20375;-78
2024/01/17 06:26:36;;;;;;;14.27;6.85;;;;;;;;;;5043880;28;20493;-78
2024/01/17 06:29:02;;;;;;;12.95;6.72;;;;;;;;;;5042210;28;20372;-79
2024/01/17 06:31:27;;;;;;;10.98;6.53;;;;;;;;;;5040773;28;20391;-78
2024/01/17 06:33:52;;;;;;;13.30;6.75;;;;;;;;;;5059142;28;20040;-78
2024/01/17 06:36:18;;;;;;;12.88;6.70;;;;;;;;;;5060438;28;20304;-78
2024/01/17 06:38:44;;;;;;;13.65;7.32;;;;;;;;;;5061017;28;20032;-78
2024/01/17 06:41:09;;;;;;;13.23;7.55;;;;;;;;;;5041781;28;20454;-78
2024/01/17 06:43:36;;;;;;;15.82;7.47;;;;;;;;;;5062395;28;20105;-78
2024/01/17 06:46:02;;;;;;;13.00;7.53;;;;;;;;;;5064635;28;20052;-78
2024/01/17 06:48:28;;;;;;;14.73;7.38;;;;;;;;;;5046575;28;20024;-78
2024/01/17 06:50:54;;;;;;;12.40;7.10;;;;;;;;;;5061234;28;20375;-79
2024/01/17 06:53:21;;;;;;;14.57;7.80;;;;;;;;;;5065014;28;20107;-78
2024/01/17 06:55:47;;;;;;;13.23;7.85;;;;;;;;;;5044523;28;20028;-78
2024/01/17 06:58:12;;;;;;;13.45;7.07;;;;;;;;;;5048252;28;20025;-78
2024/01/17 07:00:38;;;;;;;12.02;6.68;;;;;;;;;;5050021;28;20478;-78
2024/01/17 07:03:03;;;;;;;16.10;8.30;;;;;;;;;;5049992;28;20033;-78
2024/01/17 07:05:29;;;;;;;10.90;6.80;;;;;;;;;;5044583;28;20020;-79
2024/01/17 07:07:54;;;;;;;12.20;7.22;;;;;;;;;;5048214;28;20474;-78
2024/01/17 07:10:20;;;;;;;15.52;7.65;;;;;;;;;;5047766;28;20078;-79
2024/01/17 07:12:45;;;;;;;12.38;7.47;;;;;;;;;;5047755;28;20039;-79
2024/01/17 07:15:11;;;;;;;13.25;7.65;;;;;;;;;;5047952;28;20552;-79
2024/01/17 07:17:37;;;;;;;12.38;7.07;;;;;;;;;;5064235;28;20036;-78
2024/01/17 07:20:04;;;;;;;14.25;7.68;;;;;;;;;;5064606;28;20048;-78
2024/01/17 07:22:29;;;;;;;17.80;7.78;;;;;;;;;;5047481;28;20111;-78
2024/01/17 07:24:55;;;;;;;15.88;7.13;;;;;;;;;;5046576;28;20458;-79
2024/01/17 07:27:20;;;;;;;12.27;6.93;;;;;;;;;;5064014;28;20033;-79
2024/01/17 07:29:46;;;;;;;14.52;7.63;;;;;;;;;;5051742;28;20024;-79
2024/01/17 07:32:12;;;;;;;12.35;6.85;;;;;;;;;;5047025;28;20055;-78
2024/01/17 07:34:37;;;;;;;10.45;6.43;;;;;;;;;;5064975;28;20027;-79
2024/01/17 07:37:03;;;;;;;12.77;6.93;;;;;;;;;;5063835;28;20036;-79
2024/01/17 07:39:28;;;;;;;12.98;7.07;;;;;;;;;;5062592;28;20394;-79
2024/01/17 07:41:55;;;;;;;15.55;7.60;;;;;;;;;;5044001;28;20037;-78
2024/01/17 07:44:21;;;;;;;13.77;7.20;;;;;;;;;;5061682;28;20147;-79
2024/01/17 07:46:47;;;;;;;13.02;7.13;;;;;;;;;;5045859;28;20624;-78
2024/01/17 07:49:13;;;;;;;10.50;6.40;;;;;;;;;;5045554;28;20024;-78
2024/01/17 07:51:38;;;;;;;11.30;6.57;;;;;;;;;;5047314;28;20034;-78
2024/01/17 07:54:04;;;;;;;13.00;6.47;;;;;;;;;;5062979;28;20040;-78
2024/01/17 07:56:29;;;;;;;11.70;6.50;;;;;;;;;;5046644;28;20130;-78
2024/01/17 07:58:54;;;;;;;11.70;6.78;;;;;;;;;;5046081;28;20028;-79
2024/01/17 08:01:20;;;;;;;11.20;6.82;;;;;;;;;;5061465;28;20490;-79
2024/01/17 08:03:45;;;;;;;11.32;6.15;;;;;;;;;;5048330;28;20063;-79
2024/01/17 08:06:12;;;;;;;10.60;6.53;;;;;;;;;;5047055;28;20115;-79
2024/01/17 08:08:38;;;;;;;13.63;7.18;;;;;;;;;;5017884;28;20188;-79
2024/01/17 08:11:04;;;;;;;12.18;6.47;;;;;;;;;;5040175;28;20462;-79
2024/01/17 08:13:30;;;;;;;12.10;6.75;;;;;;;;;;5051759;28;20106;-79
2024/01/17 08:15:55;;;;;;;10.85;6.95;;;;;;;;;;5045441;28;20115;-79
2024/01/17 08:18:21;;;;;;;11.98;6.72;;;;;;;;;;5063768;28;20021;-79
2024/01/17 08:20:46;;;;;;;11.93;6.60;;;;;;;;;;5048696;28;20044;-79
2024/01/17 08:23:12;;;;;;;11.45;6.57;;;;;;;;;;5048034;28;20023;-79
2024/01/17 08:25:38;;;;;;;13.32;7.03;;;;;;;;;;5054403;28;20028;-79
2024/01/17 08:28:03;;;;;;;14.00;7.28;;;;;;;;;;5053325;28;20036;-79
2024/01/17 08:30:29;;;;;;;13.45;7.53;;;;;;;;;;5051539;28;20466;-79
2024/01/17 08:32:54;;;;;;;11.88;7.00;;;;;;;;;;5062623;28;20028;-79
2024/01/17 08:35:20;;;;;;;12.35;7.38;;;;;;;;;;5048629;28;20504;-79
2024/01/17 08:37:46;;;;;;;12.85;6.75;;;;;;;;;;5065569;28;20024;-80
2024/01/17 08:40:12;;;;;;;11.75;6.72;;;;;;;;;;5066628;28;20035;-79
2024/01/17 08:42:38;;;;;;;11.30;6.85;;;;;;;;;;5072216;28;20024;-80
2024/01/17 08:45:05;;;;;;;14.63;7.78;;;;;;;;;;5051886;28;20020;-80
2024/01/17 08:47:31;;;;;;;14.77;7.47;;;;;;;;;;5055973;28;20028;-80
2024/01/17 08:49:56;;;;;;;13.75;7.00;;;;;;;;;;5049882;28;20028;-79
2024/01/17 08:52:22;;;;;;;12.50;7.28;;;;;;;;;;5072380;28;20516;-79
2024/01/17 08:54:48;;;;;;;12.68;7.28;;;;;;;;;;5078208;28;20045;-79
2024/01/17 08:57:13;;;;;;;9.98;6.35;;;;;;;;;;5067080;28;20509;-79
2024/01/17 08:59:39;;;;;;;13.50;7.68;;;;;;;;;;5051251;28;20104;-79
2024/01/17 09:02:05;;;;;;;13.90;8.13;;;;;;;;;;5063251;28;20494;-79
2024/01/17 09:04:31;;;;;;;16.48;8.23;;;;;;;;;;5055435;28;20482;-79
2024/01/17 09:06:56;;;;;;;15.32;8.10;;;;;;;;;;5049115;28;20345;-79
2024/01/17 09:09:24;;;;;;;14.35;7.95;;;;;;;;;;5060795;28;20474;-79
2024/01/17 09:11:50;;;;;;;12.85;7.40;;;;;;;;;;5054781;28;20035;-79
2024/01/17 09:14:19;;;;;;;12.30;7.72;;;;;;;;;;5068561;28;20028;-79
2024/01/17 09:16:44;;;;;;;13.38;7.70;;;;;;;;;;5071059;28;20021;-79
2024/01/17 09:19:10;;;;;;;13.68;8.70;;;;;;;;;;5068649;28;20029;-79
2024/01/17 09:21:38;;;;;;;14.82;8.63;;;;;;;;;;5060653;28;20027;-79
2024/01/17 09:24:04;;;;;;;13.25;7.50;;;;;;;;;;5072384;28;20446;-79
2024/01/17 09:26:32;;;;;;;13.20;8.50;;;;;;;;;;5072653;28;20048;-79
2024/01/17 09:28:58;;;;;;;12.85;7.40;;;;;;;;;;5073552;28;20024;-79
2024/01/17 09:31:25;;;;;;;16.35;8.63;;;;;;;;;;5072635;28;20085;-79
2024/01/17 09:33:51;;;;;;;13.55;7.78;;;;;;;;;;5073242;28;20539;-79
2024/01/17 09:36:16;;;;;;;13.15;6.82;;;;;;;;;;5053170;28;20037;-79
2024/01/17 09:38:42;;;;;;;14.68;8.25;;;;;;;;;;5072729;28;20100;-79
2024/01/17 09:41:07;;;;;;;15.00;8.35;;;;;;;;;;5071575;28;20386;-79
2024/01/17 09:43:33;;;;;;;13.13;7.13;;;;;;;;;;5072820;28;20036;-79
2024/01/17 09:46:00;;;;;;;12.55;6.95;;;;;;;;;;5070691;28;20027;-79
2024/01/17 09:48:26;;;;;;;14.85;7.70;;;;;;;;;;5068452;28;20032;-79
2024/01/17 09:50:52;;;;;;;13.30;7.70;;;;;;;;;;5072671;28;20021;-79
2024/01/17 09:53:23;;;;;;;13.93;7.97;;;;;;;;;;5054857;28;20394;-79
2024/01/17 09:55:52;;;;;;;12.77;7.57;;;;;;;;;;5071547;28;20039;-79
2024/01/17 09:58:19;;;;;;;13.07;7.38;;;;;;;;;;5072260;28;20481;-79
2024/01/17 10:00:46;;;;;;;11.23;6.63;;;;;;;;;;5072509;28;20043;-79
2024/01/17 10:03:20;;;;;;;12.18;7.25;;;;;;;;;;5053876;28;20104;-79
2024/01/17 10:05:50;;;;;;;14.57;7.40;;;;;;;;;;5067415;28;20020;-79
2024/01/17 10:08:18;;;;;;;15.65;7.50;;;;;;;;;;5069505;28;20044;-79
2024/01/17 10:10:43;;;;;;;13.15;7.50;;;;;;;;;;5066780;28;20035;-79
2024/01/17 10:13:11;;;;;;;15.98;7.88;;;;;;;;;;5072265;28;20033;-79
2024/01/17 10:15:44;;;;;;;11.90;6.90;;;;;;;;;;5048699;28;20485;-79
2024/01/17 10:18:11;;;;;;;13.25;7.60;;;;;;;;;;5068076;28;20028;-79
2024/01/17 10:20:36;;;;;;;12.18;7.63;;;;;;;;;;5049377;28;20021;-79
2024/01/17 10:23:03;;;;;;;14.15;7.78;;;;;;;;;;5045961;28;20484;-80
2024/01/17 10:25:40;;;;;;;12.65;7.35;;;;;;;;;;5051777;28;20470;-80
2024/01/17 10:28:07;;;;;;;11.45;6.40;;;;;;;;;;5059620;28;20520;-79
2024/01/17 10:30:32;;;;;;;12.55;6.90;;;;;;;;;;5049737;28;20093;-79
2024/01/17 10:32:58;;;;;;;11.68;6.85;;;;;;;;;;5067774;28;20025;-80
2024/01/17 10:35:24;;;;;;;11.73;7.10;;;;;;;;;;5069047;28;20033;-79
2024/01/17 10:37:53;;;;;;;11.85;6.78;;;;;;;;;;5049755;28;20021;-79
2024/01/17 10:40:19;;;;;;;10.95;5.82;;;;;;;;;;5063029;28;20051;-79
2024/01/17 10:42:45;;;;;;;12.00;7.00;;;;;;;;;;5051947;28;20017;-79
2024/01/17 10:45:21;;;;;;;12.82;6.70;;;;;;;;;;5066346;28;20107;-79
2024/01/17 10:47:47;;;;;;;10.90;6.45;;;;;;;;;;5059960;28;20025;-79
2024/01/17 10:50:12;;;;;;;12.73;6.18;;;;;;;;;;5069641;28;20025;-79
2024/01/17 10:52:43;;;;;;;12.15;6.60;;;;;;;;;;5043276;28;20025;-79
2024/01/17 10:55:10;;;;;;;12.65;7.28;;;;;;;;;;5046047;28;20075;-79
2024/01/17 10:57:41;;;;;;;11.75;6.18;;;;;;;;;;5046600;28;20039;-79
2024/01/17 11:00:11;;;;;;;12.10;6.63;;;;;;;;;;5070442;28;20035;-79
2024/01/17 11:02:40;;;;;;;11.70;6.90;;;;;;;;;;5071851;28;20107;-79
2024/01/17 11:05:13;;;;;;;13.10;7.07;;;;;;;;;;5068757;28;20501;-79
2024/01/17 11:07:41;;;;;;;;;;;;;;;;;;5054580;28;20028;-79
2024/01/17 11:10:10;;;;;;;10.40;6.47;;;;;;;;;;5070391;28;19908;-79
2024/01/17 11:12:38;;;;;;;10.68;6.38;;;;;;;;;;5066669;28;20091;-79
2024/01/17 11:15:04;;;;;;;12.48;6.40;;;;;;;;;;5067219;28;20086;-79
2024/01/17 11:17:36;;;;;;;12.18;6.70;;;;;;;;;;5053151;28;20032;-79
2024/01/17 11:20:08;;;;;;;13.10;7.43;;;;;;;;;;5067793;28;20126;-79
2024/01/17 11:22:38;;;;;;;10.93;6.57;;;;;;;;;;5069935;28;20074;-79
2024/01/17 11:25:19;;;;;;;13.50;7.25;;;;;;;;;;5073374;28;20052;-79
2024/01/17 11:28:16;;;;;;;14.35;7.60;;;;;;;;;;5071404;28;20486;-79
2024/01/17 11:31:00;;;;;;;12.20;6.45;;;;;;;;;;5065338;28;20081;-79
2024/01/17 11:33:27;;;;;;;13.32;7.10;;;;;;;;;;5074562;28;20070;-79
2024/01/17 11:35:53;;;;;;;14.73;7.03;;;;;;;;;;5073361;28;20031;-79
2024/01/17 11:38:24;;;;;;;15.77;7.88;;;;;;;;;;5073372;28;20410;-79
2024/01/17 11:41:05;;;;;;;11.98;6.65;;;;;;;;;;5068769;28;20078;-79
2024/01/17 11:43:33;;;;;;;13.63;7.18;;;;;;;;;;5068093;28;20016;-79
2024/01/17 11:46:01;;;;;;;12.88;7.15;;;;;;;;;;5075097;28;20074;-79
2024/01/17 11:48:28;;;;;;;14.05;7.13;;;;;;;;;;5069494;28;20042;-78
2024/01/17 11:50:53;;;;;;;11.23;7.57;;;;;;;;;;5069314;28;20051;-78
2024/01/17 11:53:23;;;;;;;12.80;6.90;;;;;;;;;;5074775;28;20025;-79
2024/01/17 11:55:51;;;;;;;12.65;6.93;;;;;;;;;;5071731;28;20029;-79
2024/01/17 11:58:17;;;;;;;11.23;6.88;;;;;;;;;;5051716;28;20056;-78
2024/01/17 12:00:43;;;;;;;13.60;7.22;;;;;;;;;;5051151;28;20063;-79
2024/01/17 12:03:08;;;;;;;13.30;6.97;;;;;;;;;;5051759;28;20078;-79
2024/01/17 12:05:37;;;;;;;12.38;7.13;;;;;;;;;;5067096;28;20482;-78
2024/01/17 12:08:05;;;;;;;12.02;7.30;;;;;;;;;;5061737;28;20037;-79
2024/01/17 12:10:31;;;;;;;12.18;7.13;;;;;;;;;;5055892;28;20097;-79
2024/01/17 12:12:58;;;;;;;13.00;7.53;;;;;;;;;;5056623;28;20482;-78
2024/01/17 12:15:24;;;;;;;11.52;6.97;;;;;;;;;;5071371;28;20060;-79
2024/01/17 12:17:50;;;;;;;12.93;7.13;;;;;;;;;;5071928;28;20067;-79
2024/01/17 12:20:16;;;;;;;12.77;7.07;;;;;;;;;;5056615;28;20038;-78
2024/01/17 12:22:52;;;;;;;14.18;6.97;;;;;;;;;;5073007;28;20088;-79
2024/01/17 12:25:18;;;;;;;12.50;7.30;;;;;;;;;;5053332;28;20067;-78
2024/01/17 12:27:51;;;;;;;12.95;6.80;;;;;;;;;;5074569;28;20021;-78
2024/01/17 12:30:17;;;;;;;;;;;;;;;;;;5074331;28;20028;-78
2024/01/17 12:32:42;;;;;;;13.73;6.25;;;;;;;;;;5056528;28;19913;-78
2024/01/17 12:35:08;;;;;;;12.52;6.20;;;;;;;;;;5074207;28;20450;-78
2024/01/17 12:37:34;;;;;;;16.30;7.32;;;;;;;;;;5056170;28;20546;-80
2024/01/17 12:39:59;;;;;;;14.05;7.20;;;;;;;;;;5062562;28;20029;-79
2024/01/17 12:42:25;;;;;;;12.85;7.53;;;;;;;;;;5053816;28;20021;-79
2024/01/17 12:44:50;;;;;;;13.32;6.97;;;;;;;;;;5071945;28;20107;-80
2024/01/17 12:47:17;;;;;;;13.95;7.78;;;;;;;;;;5069520;28;20033;-80
2024/01/17 12:49:46;;;;;;;12.07;7.28;;;;;;;;;;5079720;28;20027;-79
2024/01/17 12:52:17;;;;;;;13.98;8.07;;;;;;;;;;5053466;28;20470;-80
2024/01/17 12:54:43;;;;;;;16.80;8.40;;;;;;;;;;5072777;28;20027;-79
2024/01/17 12:57:09;;;;;;;14.68;8.48;;;;;;;;;;5072274;28;20104;-79
2024/01/17 12:59:34;;;;;;;16.13;9.13;;;;;;;;;;5069559;28;20508;-79
2024/01/17 13:02:00;;;;;;;14.18;7.68;;;;;;;;;;5066932;28;20028;-79
2024/01/17 13:04:29;;;;;;;17.25;8.60;;;;;;;;;;5074336;28;20042;-80
2024/01/17 13:06:57;;;;;;;14.18;8.15;;;;;;;;;;5068210;28;20090;-80
2024/01/17 13:09:23;;;;;;;12.68;7.53;;;;;;;;;;5072019;28;20024;-80
2024/01/17 13:11:51;;;;;;;14.88;8.38;;;;;;;;;;5070874;28;20036;-79
2024/01/17 13:14:18;;;;;;;13.73;8.30;;;;;;;;;;5073202;28;20032;-79
2024/01/17 13:16:45;;;;;;;13.60;7.20;;;;;;;;;;5069384;28;20134;-80
2024/01/17 13:19:12;;;;;;;14.93;8.10;;;;;;;;;;5059746;28;20067;-79
2024/01/17 13:21:38;;;;;;;17.60;8.90;;;;;;;;;;5073433;28;20024;-79
2024/01/17 13:24:04;;;;;;;16.00;9.00;;;;;;;;;;5048039;28;20119;-80
2024/01/17 13:26:30;;;;;;;13.65;8.15;;;;;;;;;;5065266;28;20094;-79
2024/01/17 13:28:56;;;;;;;14.70;8.63;;;;;;;;;;5050840;28;20033;-79
2024/01/17 13:31:22;;;;;;;15.57;8.63;;;;;;;;;;5054346;28;20035;-79
2024/01/17 13:33:50;;;;;;;14.15;8.88;;;;;;;;;;5070473;28;20032;-80
2024/01/17 13:36:16;;;;;;;14.50;8.88;;;;;;;;;;5070286;28;20028;-79
2024/01/17 13:38:41;;;;;;;14.45;8.18;;;;;;;;;;5063920;28;20486;-79
2024/01/17 13:41:07;;;;;;;14.77;8.73;;;;;;;;;;5065647;28;20032;-79
2024/01/17 13:43:36;;;;;;;14.43;8.82;;;;;;;;;;5071541;28;20032;-79
2024/01/17 13:46:03;;;;;;;15.57;8.52;;;;;;;;;;5064742;28;20020;-79
2024/01/17 13:48:28;;;;;;;14.75;8.50;;;;;;;;;;5073200;28;20024;-78
2024/01/17 13:50:54;;;;;;;15.27;9.60;;;;;;;;;;5071282;28;20418;-78
2024/01/17 13:53:29;;;;;;;17.00;9.27;;;;;;;;;;5066980;28;20029;-78
2024/01/17 13:56:00;;;;;;;16.45;9.25;;;;;;;;;;5045529;28;20024;-79
2024/01/17 13:58:27;;;;;;;14.50;8.70;;;;;;;;;;5069012;28;20032;-78
2024/01/17 14:00:57;;;;;;;15.60;9.02;;;;;;;;;;5067203;28;20032;-78
2024/01/17 14:03:23;;;;;;;15.55;9.40;;;;;;;;;;5049061;28;20125;-78
2024/01/17 14:05:48;;;;;;;17.23;9.07;;;;;;;;;;5072579;28;20020;-78
2024/01/17 14:08:13;;;;;;;16.55;9.40;;;;;;;;;;5058642;28;20032;-79
2024/01/17 14:10:39;;;;;;;15.02;9.20;;;;;;;;;;5070047;28;20021;-79
2024/01/17 14:13:04;;;;;;;13.32;8.15;;;;;;;;;;5066598;28;20111;-78
2024/01/17 14:15:30;;;;;;;14.95;8.85;;;;;;;;;;5069937;28;20029;-78
2024/01/17 14:17:57;;;;;;;14.15;9.02;;;;;;;;;;5054403;28;20400;-84
2024/01/17 14:20:23;;;;;;;15.27;8.98;;;;;;;;;;5053251;28;20028;-84
2024/01/17 14:22:49;;;;;;;17.83;9.82;;;;;;;;;;5047724;28;20036;-84
2024/01/17 14:25:15;;;;;;;16.02;9.45;;;;;;;;;;5070182;28;20513;-83
2024/01/17 14:27:44;;;;;;;15.93;8.88;;;;;;;;;;5072364;28;20028;-84